createdAt,value
2022-09-28T00:00:44.948Z,1.80
2022-09-28T00:01:45.035Z,1.70
2022-09-28T00:02:45.034Z,1.80
2022-09-28T00:03:44.930Z,1.90
2022-09-28T00:04:44.915Z,1.70
2022-09-28T00:05:44.906Z,1.80
2022-09-28T00:06:44.899Z,1.90
2022-09-28T00:07:44.892Z,1.90
2022-09-28T00:08:44.881Z,1.70
2022-09-28T00:09:44.873Z,2.10
2022-09-28T00:10:44.865Z,2.00
2022-09-28T00:11:44.857Z,2.10
2022-09-28T00:12:44.849Z,2.00
2022-09-28T00:13:44.840Z,1.90
2022-09-28T00:14:44.832Z,2.20
2022-09-28T00:15:44.824Z,2.20
2022-09-28T00:16:44.829Z,2.10
2022-09-28T00:17:44.807Z,2.10
2022-09-28T00:18:44.799Z,1.90
2022-09-28T00:19:44.791Z,1.80
2022-09-28T00:20:44.782Z,2.00
2022-09-28T00:21:44.774Z,2.10
2022-09-28T00:22:44.767Z,2.10
2022-09-28T00:23:44.758Z,2.00
2022-09-28T00:24:44.750Z,2.10
2022-09-28T00:25:44.742Z,2.00
2022-09-28T00:26:44.733Z,2.10
2022-09-28T00:27:44.725Z,2.10
2022-09-28T00:28:44.718Z,2.10
2022-09-28T00:29:44.707Z,2.20
2022-09-28T00:30:44.703Z,2.20
2022-09-28T00:31:44.830Z,2.30
2022-09-28T00:32:44.684Z,2.20
2022-09-28T00:33:44.675Z,2.20
2022-09-28T00:34:44.666Z,2.30
2022-09-28T00:35:44.662Z,2.40
2022-09-28T00:36:44.653Z,2.40
2022-09-28T00:37:44.643Z,2.50
2022-09-28T00:38:44.635Z,2.40
2022-09-28T00:39:44.628Z,2.50
2022-09-28T00:40:44.675Z,2.40
2022-09-28T00:41:44.610Z,2.50
2022-09-28T00:42:44.602Z,2.50
2022-09-28T00:43:44.592Z,2.40
2022-09-28T00:44:44.587Z,2.60
2022-09-28T00:45:44.685Z,2.50
2022-09-28T00:46:44.571Z,2.60
2022-09-28T00:47:44.561Z,2.80
2022-09-28T00:48:44.554Z,2.80
2022-09-28T00:49:44.545Z,2.90
2022-09-28T00:50:44.536Z,2.90
2022-09-28T00:51:44.530Z,2.90
2022-09-28T00:52:44.519Z,2.80
2022-09-28T00:53:44.511Z,2.90
2022-09-28T00:54:44.503Z,3.00
2022-09-28T00:55:44.495Z,3.00
2022-09-28T00:56:44.487Z,3.10
2022-09-28T00:57:44.477Z,3.20
2022-09-28T00:58:44.471Z,3.10
2022-09-28T00:59:44.464Z,3.20
2022-09-28T01:00:44.493Z,3.10
2022-09-28T01:01:44.514Z,3.20
2022-09-28T01:02:44.439Z,3.20
2022-09-28T01:03:44.430Z,3.60
2022-09-28T01:04:44.422Z,3.50
2022-09-28T01:05:44.413Z,3.40
2022-09-28T01:06:44.405Z,3.50
2022-09-28T01:07:44.395Z,3.60
2022-09-28T01:08:44.390Z,3.60
2022-09-28T01:09:44.380Z,3.60
2022-09-28T01:10:44.372Z,3.90
2022-09-28T01:11:44.364Z,3.90
2022-09-28T01:12:44.355Z,3.80
2022-09-28T01:13:44.348Z,3.90
2022-09-28T01:14:44.339Z,3.60
2022-09-28T01:15:44.331Z,4.00
2022-09-28T01:16:44.378Z,3.70
2022-09-28T01:17:44.316Z,3.80
2022-09-28T01:18:44.307Z,3.80
2022-09-28T01:19:44.303Z,3.80
2022-09-28T01:20:44.291Z,3.60
2022-09-28T01:21:44.285Z,3.60
2022-09-28T01:22:44.274Z,3.60
2022-09-28T01:23:44.267Z,3.80
2022-09-28T01:24:44.260Z,3.70
2022-09-28T01:25:44.250Z,3.70
2022-09-28T01:26:44.242Z,3.70
2022-09-28T01:27:44.232Z,4.00
2022-09-28T01:28:44.228Z,4.10
2022-09-28T01:29:44.218Z,3.90
2022-09-28T01:30:44.211Z,4.00
2022-09-28T01:31:44.337Z,4.00
2022-09-28T01:32:44.195Z,4.10
2022-09-28T01:33:44.186Z,3.90
2022-09-28T01:34:44.176Z,4.00
2022-09-28T01:35:44.170Z,3.80
2022-09-28T01:36:44.162Z,4.20
2022-09-28T01:37:44.154Z,4.20
2022-09-28T01:38:44.145Z,4.20
2022-09-28T01:39:44.137Z,4.00
2022-09-28T01:40:44.148Z,4.40
2022-09-28T01:41:44.119Z,4.30
2022-09-28T01:42:44.113Z,4.10
2022-09-28T01:43:44.103Z,4.10
2022-09-28T01:44:44.096Z,4.10
2022-09-28T01:45:44.135Z,4.10
2022-09-28T01:46:44.079Z,4.00
2022-09-28T01:47:44.073Z,4.20
2022-09-28T01:48:44.063Z,3.70
2022-09-28T01:49:44.057Z,3.80
2022-09-28T01:50:44.047Z,3.60
2022-09-28T01:51:44.039Z,3.80
2022-09-28T01:52:44.032Z,3.80
2022-09-28T01:53:44.021Z,3.60
2022-09-28T01:54:44.014Z,4.00
2022-09-28T01:55:44.006Z,3.60
2022-09-28T01:56:43.997Z,3.90
2022-09-28T01:57:43.992Z,3.60
2022-09-28T01:58:43.981Z,3.50
2022-09-28T01:59:43.974Z,3.60
2022-09-28T02:00:43.994Z,3.70
2022-09-28T02:01:43.977Z,3.70
2022-09-28T02:02:43.948Z,3.50
2022-09-28T02:03:43.940Z,3.70
2022-09-28T02:04:43.934Z,3.50
2022-09-28T02:05:43.926Z,3.60
2022-09-28T02:06:43.919Z,3.60
2022-09-28T02:07:43.909Z,3.50
2022-09-28T02:08:43.901Z,3.50
2022-09-28T02:09:43.893Z,3.50
2022-09-28T02:10:43.886Z,3.50
2022-09-28T02:11:43.876Z,3.50
2022-09-28T02:12:43.868Z,3.40
2022-09-28T02:13:43.859Z,3.20
2022-09-28T02:14:43.855Z,3.00
2022-09-28T02:15:43.844Z,3.60
2022-09-28T02:16:43.927Z,3.20
2022-09-28T02:17:43.828Z,3.10
2022-09-28T02:18:43.818Z,2.90
2022-09-28T02:19:43.812Z,3.20
2022-09-28T02:20:43.803Z,3.00
2022-09-28T02:21:43.794Z,2.90
2022-09-28T02:22:43.788Z,3.10
2022-09-28T02:23:43.781Z,3.00
2022-09-28T02:24:43.771Z,2.90
2022-09-28T02:25:43.763Z,2.90
2022-09-28T02:26:43.754Z,3.00
2022-09-28T02:27:43.749Z,3.00
2022-09-28T02:28:43.737Z,2.80
2022-09-28T02:29:43.730Z,3.00
2022-09-28T02:30:43.720Z,3.00
2022-09-28T02:31:43.812Z,3.00
2022-09-28T02:32:43.705Z,3.20
2022-09-28T02:33:43.697Z,3.10
2022-09-28T02:34:43.690Z,3.00
2022-09-28T02:35:43.701Z,3.00
2022-09-28T02:36:43.673Z,3.10
2022-09-28T02:37:43.664Z,3.00
2022-09-28T02:38:43.663Z,3.20
2022-09-28T02:39:43.647Z,3.30
2022-09-28T02:40:43.658Z,3.10
2022-09-28T02:41:43.634Z,3.10
2022-09-28T02:42:43.624Z,3.50
2022-09-28T02:43:43.616Z,3.40
2022-09-28T02:44:43.609Z,3.30
2022-09-28T02:45:43.650Z,3.20
2022-09-28T02:46:43.591Z,3.40
2022-09-28T02:47:43.583Z,3.10
2022-09-28T02:48:45.667Z,3.20
2022-09-28T02:49:43.565Z,3.50
2022-09-28T02:50:43.558Z,3.30
2022-09-28T02:51:43.550Z,3.50
2022-09-28T02:52:43.553Z,3.70
2022-09-28T02:53:43.535Z,3.70
2022-09-28T02:54:43.525Z,3.60
2022-09-28T02:55:43.517Z,3.50
2022-09-28T02:56:43.509Z,3.90
2022-09-28T02:57:43.503Z,3.60
2022-09-28T02:58:43.495Z,3.90
2022-09-28T02:59:43.487Z,3.80
2022-09-28T03:00:43.632Z,3.70
2022-09-28T03:01:43.490Z,4.10
2022-09-28T03:02:43.461Z,4.10
2022-09-28T03:03:43.454Z,4.20
2022-09-28T03:04:43.445Z,4.10
2022-09-28T03:05:43.434Z,4.20
2022-09-28T03:06:43.427Z,4.50
2022-09-28T03:07:43.419Z,4.60
2022-09-28T03:08:43.411Z,4.60
2022-09-28T03:09:43.401Z,4.80
2022-09-28T03:10:43.396Z,5.10
2022-09-28T03:11:43.385Z,4.90
2022-09-28T03:12:43.379Z,4.90
2022-09-28T03:13:43.369Z,4.90
2022-09-28T03:14:43.362Z,5.30
2022-09-28T03:15:47.715Z,5.70
2022-09-28T03:16:43.362Z,5.70
2022-09-28T03:17:43.336Z,5.70
2022-09-28T03:18:43.333Z,5.60
2022-09-28T03:19:43.320Z,5.90
2022-09-28T03:20:43.312Z,6.10
2022-09-28T03:21:43.304Z,6.00
2022-09-28T03:22:43.296Z,6.00
2022-09-28T03:23:43.288Z,5.90
2022-09-28T03:24:43.281Z,6.20
2022-09-28T03:25:43.273Z,6.40
2022-09-28T03:26:43.262Z,6.20
2022-09-28T03:27:43.257Z,6.20
2022-09-28T03:28:43.256Z,6.20
2022-09-28T03:29:43.237Z,6.10
2022-09-28T03:30:43.231Z,6.50
2022-09-28T03:31:43.264Z,6.40
2022-09-28T03:32:43.214Z,6.70
2022-09-28T03:33:43.205Z,6.90
2022-09-28T03:34:43.197Z,7.00
2022-09-28T03:35:43.190Z,7.00
2022-09-28T03:36:43.181Z,7.50
2022-09-28T03:37:43.172Z,7.70
2022-09-28T03:38:43.163Z,7.60
2022-09-28T03:39:43.158Z,8.20
2022-09-28T03:40:43.188Z,7.60
2022-09-28T03:41:43.138Z,7.60
2022-09-28T03:42:43.130Z,8.10
2022-09-28T03:43:43.124Z,7.90
2022-09-28T03:44:43.116Z,7.80
2022-09-28T03:45:43.162Z,7.80
2022-09-28T03:46:43.099Z,7.80
2022-09-28T03:47:43.091Z,7.40
2022-09-28T03:48:43.083Z,7.30
2022-09-28T03:49:43.073Z,7.40
2022-09-28T03:50:43.065Z,7.30
2022-09-28T03:51:43.058Z,7.20
2022-09-28T03:52:43.049Z,7.50
2022-09-28T03:53:43.041Z,7.40
2022-09-28T03:54:48.317Z,7.40
2022-09-28T03:55:43.025Z,7.30
2022-09-28T03:56:43.016Z,7.60
2022-09-28T03:57:43.006Z,7.60
2022-09-28T03:58:43.004Z,8.10
2022-09-28T03:59:42.991Z,7.70
2022-09-28T04:00:43.029Z,8.00
2022-09-28T04:01:43.027Z,8.30
2022-09-28T04:02:42.965Z,7.90
2022-09-28T04:03:42.957Z,8.30
2022-09-28T04:04:42.948Z,8.00
2022-09-28T04:05:42.942Z,7.80
2022-09-28T04:06:42.932Z,8.20
2022-09-28T04:07:42.923Z,8.10
2022-09-28T04:08:42.917Z,7.90
2022-09-28T04:09:42.905Z,7.50
2022-09-28T04:10:42.897Z,8.40
2022-09-28T04:12:02.408Z,8.70
2022-09-28T04:12:42.882Z,8.70
2022-09-28T04:13:42.872Z,8.50
2022-09-28T04:14:42.865Z,8.50
2022-09-28T04:15:42.857Z,8.40
2022-09-28T04:16:42.892Z,8.30
2022-09-28T04:17:42.843Z,8.40
2022-09-28T04:18:42.835Z,8.50
2022-09-28T04:19:42.823Z,8.30
2022-09-28T04:20:42.816Z,8.50
2022-09-28T04:21:42.806Z,8.20
2022-09-28T04:22:42.799Z,8.30
2022-09-28T04:23:42.794Z,8.50
2022-09-28T04:24:42.781Z,8.30
2022-09-28T04:25:42.775Z,8.40
2022-09-28T04:26:42.767Z,8.50
2022-09-28T04:27:42.757Z,8.70
2022-09-28T04:28:42.748Z,8.60
2022-09-28T04:29:42.739Z,8.30
2022-09-28T04:30:42.771Z,8.50
2022-09-28T04:31:42.783Z,8.80
2022-09-28T04:32:42.717Z,8.50
2022-09-28T04:33:42.705Z,8.20
2022-09-28T04:34:44.343Z,8.80
2022-09-28T04:35:42.692Z,8.00
2022-09-28T04:36:42.683Z,8.30
2022-09-28T04:37:42.671Z,8.10
2022-09-28T04:38:52.756Z,8.40
2022-09-28T04:39:46.281Z,7.80
2022-09-28T04:40:42.707Z,8.00
2022-09-28T04:41:42.638Z,8.00
2022-09-28T04:42:42.631Z,7.80
2022-09-28T04:43:42.623Z,7.60
2022-09-28T04:44:42.613Z,8.20
2022-09-28T04:45:42.636Z,8.10
2022-09-28T04:46:42.598Z,8.00
2022-09-28T04:47:42.590Z,7.80
2022-09-28T04:48:42.583Z,7.80
2022-09-28T04:49:42.571Z,8.10
2022-09-28T04:50:42.563Z,8.00
2022-09-28T04:51:42.554Z,7.90
2022-09-28T04:52:42.548Z,7.70
2022-09-28T04:53:42.542Z,8.10
2022-09-28T04:54:42.530Z,7.90
2022-09-28T04:55:42.522Z,7.80
2022-09-28T04:56:42.515Z,7.90
2022-09-28T04:57:42.504Z,7.70
2022-09-28T04:58:42.496Z,7.90
2022-09-28T04:59:42.489Z,7.80
2022-09-28T05:00:42.521Z,7.70
2022-09-28T05:01:42.471Z,8.00
2022-09-28T05:02:42.530Z,8.00
2022-09-28T05:03:42.454Z,8.30
2022-09-28T05:04:42.449Z,8.30
2022-09-28T05:05:42.436Z,8.20
2022-09-28T05:06:42.429Z,8.50
2022-09-28T05:07:42.422Z,8.50
2022-09-28T05:08:42.413Z,8.70
2022-09-28T05:09:42.420Z,8.30
2022-09-28T05:10:42.395Z,8.80
2022-09-28T05:11:42.392Z,9.20
2022-09-28T05:12:42.380Z,9.00
2022-09-28T05:13:42.372Z,9.10
2022-09-28T05:14:42.359Z,9.50
2022-09-28T05:15:42.354Z,9.30
2022-09-28T05:16:42.483Z,9.20
2022-09-28T05:17:42.334Z,9.20
2022-09-28T05:18:42.326Z,9.30
2022-09-28T05:19:42.319Z,9.80
2022-09-28T05:20:42.320Z,9.30
2022-09-28T05:21:42.302Z,9.30
2022-09-28T05:22:42.296Z,10.00
2022-09-28T05:23:42.286Z,9.60
2022-09-28T05:24:42.276Z,10.40
2022-09-28T05:25:42.278Z,10.10
2022-09-28T05:26:42.262Z,10.10
2022-09-28T05:27:42.252Z,10.10
2022-09-28T05:28:42.244Z,9.90
2022-09-28T05:29:42.238Z,9.80
2022-09-28T05:30:42.237Z,9.70
2022-09-28T05:31:42.313Z,9.90
2022-09-28T05:32:42.211Z,9.30
2022-09-28T05:33:42.200Z,9.20
2022-09-28T05:34:42.196Z,9.30
2022-09-28T05:35:42.241Z,9.30
2022-09-28T05:36:42.177Z,9.30
2022-09-28T05:37:42.167Z,9.40
2022-09-28T05:38:42.161Z,9.50
2022-09-28T05:39:42.152Z,9.40
2022-09-28T05:40:42.197Z,9.40
2022-09-28T05:41:42.134Z,8.80
2022-09-28T05:42:42.129Z,9.10
2022-09-28T05:43:42.117Z,9.10
2022-09-28T05:44:42.110Z,8.90
2022-09-28T05:45:42.148Z,9.00
2022-09-28T05:46:42.096Z,8.80
2022-09-28T05:47:42.084Z,9.50
2022-09-28T05:48:42.076Z,9.70
2022-09-28T05:49:42.067Z,9.30
2022-09-28T05:50:42.059Z,9.20
2022-09-28T05:51:42.051Z,9.40
2022-09-28T05:52:42.043Z,9.70
2022-09-28T05:53:42.032Z,9.70
2022-09-28T05:54:42.026Z,10.30
2022-09-28T05:55:42.018Z,9.70
2022-09-28T05:56:42.009Z,9.80
2022-09-28T05:57:42.002Z,9.40
2022-09-28T05:58:41.994Z,9.30
2022-09-28T05:59:41.984Z,9.00
2022-09-28T06:00:41.976Z,9.00
2022-09-28T06:01:42.019Z,9.30
2022-09-28T06:02:42.035Z,8.80
2022-09-28T06:03:41.951Z,8.50
2022-09-28T06:04:41.945Z,8.80
2022-09-28T06:05:41.942Z,8.60
2022-09-28T06:06:41.928Z,8.80
2022-09-28T06:07:41.918Z,8.40
2022-09-28T06:08:41.908Z,8.50
2022-09-28T06:09:41.903Z,8.70
2022-09-28T06:10:41.895Z,8.50
2022-09-28T06:11:41.889Z,8.60
2022-09-28T06:12:41.876Z,8.00
2022-09-28T06:13:41.867Z,8.00
2022-09-28T06:14:41.859Z,8.20
2022-09-28T06:15:41.853Z,8.40
2022-09-28T06:16:44.013Z,8.00
2022-09-28T06:17:41.836Z,8.30
2022-09-28T06:18:41.826Z,8.30
2022-09-28T06:19:41.819Z,8.40
2022-09-28T06:20:41.813Z,8.40
2022-09-28T06:21:41.802Z,8.60
2022-09-28T06:22:41.796Z,8.20
2022-09-28T06:23:45.631Z,8.00
2022-09-28T06:24:41.778Z,8.60
2022-09-28T06:25:41.770Z,8.30
2022-09-28T06:26:41.763Z,7.90
2022-09-28T06:27:41.754Z,7.60
2022-09-28T06:28:41.748Z,7.80
2022-09-28T06:29:41.737Z,7.70
2022-09-28T06:30:41.810Z,7.60
2022-09-28T06:31:41.722Z,8.80
2022-09-28T06:32:41.715Z,11.40
2022-09-28T06:33:41.709Z,8.90
2022-09-28T06:34:41.700Z,7.60
2022-09-28T06:35:41.694Z,8.10
2022-09-28T06:36:41.684Z,9.80
2022-09-28T06:37:41.676Z,9.40
2022-09-28T06:38:41.668Z,7.30
2022-09-28T06:39:41.662Z,7.00
2022-09-28T06:40:41.749Z,7.50
2022-09-28T06:41:41.648Z,7.70
2022-09-28T06:42:41.640Z,7.70
2022-09-28T06:43:41.633Z,7.40
2022-09-28T06:44:41.626Z,7.30
2022-09-28T06:45:41.643Z,7.40
2022-09-28T06:46:41.611Z,7.40
2022-09-28T06:47:41.603Z,7.50
2022-09-28T06:48:41.602Z,7.40
2022-09-28T06:49:41.589Z,7.20
2022-09-28T06:50:41.580Z,7.60
2022-09-28T06:51:41.575Z,7.60
2022-09-28T06:52:41.571Z,7.50
2022-09-28T06:53:41.560Z,7.20
2022-09-28T06:54:41.554Z,7.70
2022-09-28T06:55:41.548Z,7.70
2022-09-28T06:56:41.539Z,7.60
2022-09-28T06:57:41.532Z,7.70
2022-09-28T06:58:41.524Z,7.80
2022-09-28T06:59:41.520Z,7.80
2022-09-28T07:00:41.513Z,7.90
2022-09-28T07:01:41.554Z,7.90
2022-09-28T07:02:41.567Z,7.60
2022-09-28T07:03:41.490Z,7.90
2022-09-28T07:04:41.484Z,8.60
2022-09-28T07:05:41.477Z,8.50
2022-09-28T07:06:41.469Z,8.00
2022-09-28T07:07:41.461Z,8.70
2022-09-28T07:08:41.456Z,8.60
2022-09-28T07:09:44.984Z,8.10
2022-09-28T07:10:41.439Z,8.00
2022-09-28T07:11:41.433Z,8.40
2022-09-28T07:12:41.427Z,8.00
2022-09-28T07:13:50.542Z,8.50
2022-09-28T07:14:47.863Z,8.10
2022-09-28T07:15:41.404Z,8.20
2022-09-28T07:17:09.863Z,8.20
2022-09-28T07:17:55.918Z,9.10
2022-09-28T07:18:41.383Z,8.80
2022-09-28T07:19:41.378Z,8.20
2022-09-28T07:20:52.345Z,8.60
2022-09-28T07:21:41.360Z,8.40
2022-09-28T07:22:43.618Z,8.70
2022-09-28T07:23:51.275Z,8.10
2022-09-28T07:24:41.341Z,8.60
2022-09-28T07:25:41.333Z,8.80
2022-09-28T07:26:41.326Z,8.20
2022-09-28T07:27:41.322Z,8.80
2022-09-28T07:28:41.312Z,8.50
2022-09-28T07:29:41.303Z,8.70
2022-09-28T07:30:41.323Z,8.50
2022-09-28T07:31:41.290Z,8.50
2022-09-28T07:32:41.283Z,8.70
2022-09-28T07:33:41.274Z,8.10
2022-09-28T07:34:41.267Z,9.30
2022-09-28T07:35:41.261Z,9.10
2022-09-28T07:36:41.255Z,9.20
2022-09-28T07:37:41.247Z,8.90
2022-09-28T07:38:41.240Z,9.60
2022-09-28T07:39:41.234Z,9.40
2022-09-28T07:40:44.132Z,9.20
2022-09-28T07:41:41.218Z,9.10
2022-09-28T07:42:41.209Z,9.30
2022-09-28T07:43:41.207Z,9.20
2022-09-28T07:44:41.205Z,9.30
2022-09-28T07:45:41.220Z,9.10
2022-09-28T07:46:41.183Z,9.10
2022-09-28T07:47:41.175Z,9.30
2022-09-28T07:48:41.169Z,8.90
2022-09-28T07:49:41.160Z,8.90
2022-09-28T07:50:41.152Z,9.10
2022-09-28T07:51:41.147Z,8.80
2022-09-28T07:52:41.140Z,8.80
2022-09-28T07:53:41.130Z,8.60
2022-09-28T07:54:41.124Z,9.10
2022-09-28T07:55:41.118Z,8.70
2022-09-28T07:56:41.109Z,8.30
2022-09-28T07:57:41.102Z,8.70
2022-09-28T07:58:41.102Z,8.70
2022-09-28T07:59:41.091Z,8.80
2022-09-28T08:00:41.081Z,8.60
2022-09-28T08:01:41.168Z,8.50
2022-09-28T08:02:41.146Z,8.50
2022-09-28T08:03:41.059Z,8.40
2022-09-28T08:04:41.052Z,8.40
2022-09-28T08:05:41.046Z,8.50
2022-09-28T08:06:41.038Z,8.30
2022-09-28T08:07:41.030Z,8.70
2022-09-28T08:08:41.024Z,8.00
2022-09-28T08:09:41.016Z,8.70
2022-09-28T08:10:44.550Z,9.20
2022-09-28T08:11:41.002Z,9.40
2022-09-28T08:12:40.994Z,9.40
2022-09-28T08:13:40.988Z,9.20
2022-09-28T08:14:40.981Z,9.00
2022-09-28T08:15:40.972Z,9.10
2022-09-28T08:16:40.969Z,9.10
2022-09-28T08:17:40.958Z,9.70
2022-09-28T08:18:40.953Z,9.40
2022-09-28T08:19:40.945Z,9.10
2022-09-28T08:20:40.940Z,8.60
2022-09-28T08:21:40.931Z,8.60
2022-09-28T08:22:40.924Z,8.90
2022-09-28T08:23:40.917Z,8.60
2022-09-28T08:24:40.911Z,8.50
2022-09-28T08:25:40.902Z,8.50
2022-09-28T08:26:40.899Z,8.30
2022-09-28T08:27:40.893Z,8.40
2022-09-28T08:28:40.882Z,8.80
2022-09-28T08:29:40.874Z,8.50
2022-09-28T08:30:40.959Z,8.30
2022-09-28T08:31:40.861Z,8.40
2022-09-28T08:32:40.856Z,9.00
2022-09-28T08:33:40.847Z,8.50
2022-09-28T08:34:40.840Z,8.20
2022-09-28T08:35:40.833Z,8.20
2022-09-28T08:36:40.822Z,8.50
2022-09-28T08:37:40.820Z,8.00
2022-09-28T08:38:40.812Z,7.50
2022-09-28T08:39:40.806Z,7.70
2022-09-28T08:40:40.826Z,7.60
2022-09-28T08:41:40.794Z,7.40
2022-09-28T08:42:40.789Z,8.00
2022-09-28T08:43:40.779Z,7.90
2022-09-28T08:44:40.859Z,7.90
2022-09-28T08:45:40.784Z,7.90
2022-09-28T08:46:40.759Z,7.60
2022-09-28T08:47:40.753Z,7.40
2022-09-28T08:48:40.748Z,7.60
2022-09-28T08:49:40.738Z,7.40
2022-09-28T08:50:40.733Z,7.50
2022-09-28T08:51:40.725Z,7.70
2022-09-28T08:52:40.743Z,7.80
2022-09-28T08:53:40.713Z,7.90
2022-09-28T08:54:40.760Z,7.60
2022-09-28T08:55:40.699Z,7.80
2022-09-28T08:56:40.693Z,7.60
2022-09-28T08:57:40.685Z,7.90
2022-09-28T08:58:40.681Z,7.80
2022-09-28T08:59:40.672Z,7.40
2022-09-28T09:00:40.666Z,6.80
2022-09-28T09:01:40.742Z,7.20
2022-09-28T09:02:40.709Z,7.20
2022-09-28T09:03:40.647Z,7.20
2022-09-28T09:04:40.641Z,6.90
2022-09-28T09:05:40.636Z,7.30
2022-09-28T09:06:40.628Z,7.00
2022-09-28T09:07:40.621Z,7.20
2022-09-28T09:08:40.615Z,7.20
2022-09-28T09:09:40.608Z,7.20
2022-09-28T09:10:40.599Z,6.90
2022-09-28T09:11:40.598Z,6.80
2022-09-28T09:12:40.616Z,6.50
2022-09-28T09:13:40.582Z,6.30
2022-09-28T09:14:40.577Z,6.10
2022-09-28T09:15:40.576Z,6.30
2022-09-28T09:16:40.630Z,6.30
2022-09-28T09:17:40.558Z,5.80
2022-09-28T09:18:40.550Z,6.40
2022-09-28T09:19:40.543Z,6.60
2022-09-28T09:20:40.538Z,6.20
2022-09-28T09:21:40.532Z,6.00
2022-09-28T09:22:40.527Z,6.30
2022-09-28T09:23:40.520Z,6.30
2022-09-28T09:24:40.513Z,6.40
2022-09-28T09:25:40.505Z,6.00
2022-09-28T09:26:40.502Z,6.50
2022-09-28T09:27:40.494Z,6.40
2022-09-28T09:28:40.488Z,6.40
2022-09-28T09:29:40.494Z,6.70
2022-09-28T09:30:40.531Z,7.10
2022-09-28T09:31:40.470Z,6.90
2022-09-28T09:32:40.462Z,7.00
2022-09-28T09:33:40.458Z,6.70
2022-09-28T09:34:40.453Z,6.20
2022-09-28T09:35:40.448Z,6.50
2022-09-28T09:36:41.270Z,6.20
2022-09-28T09:37:40.434Z,6.60
2022-09-28T09:38:40.429Z,6.30
2022-09-28T09:39:40.421Z,6.20
2022-09-28T09:40:40.480Z,5.90
2022-09-28T09:41:40.495Z,5.60
2022-09-28T09:42:40.403Z,5.70
2022-09-28T09:43:40.398Z,5.60
2022-09-28T09:44:40.394Z,5.70
2022-09-28T09:45:40.404Z,5.50
2022-09-28T09:46:40.381Z,5.40
2022-09-28T09:47:40.375Z,5.70
2022-09-28T09:48:40.371Z,5.60
2022-09-28T09:49:40.364Z,5.50
2022-09-28T09:50:40.357Z,5.10
2022-09-28T09:51:40.356Z,5.30
2022-09-28T09:52:43.703Z,5.20
2022-09-28T09:53:40.345Z,4.70
2022-09-28T09:54:40.335Z,4.80
2022-09-28T09:55:40.328Z,4.90
2022-09-28T09:56:40.339Z,4.30
2022-09-28T09:57:40.320Z,4.10
2022-09-28T09:58:40.315Z,4.30
2022-09-28T09:59:40.310Z,4.80
2022-09-28T10:00:40.306Z,5.30
2022-09-28T10:01:40.341Z,4.60
2022-09-28T10:02:40.325Z,4.50
2022-09-28T10:03:40.319Z,4.40
2022-09-28T10:04:40.286Z,4.40
2022-09-28T10:05:40.279Z,4.20
2022-09-28T10:06:40.273Z,3.90
2022-09-28T10:07:43.303Z,3.80
2022-09-28T10:08:40.277Z,3.20
2022-09-28T10:09:40.258Z,3.00
2022-09-28T10:10:40.257Z,2.70
2022-09-28T10:11:40.250Z,2.50
2022-09-28T10:12:40.246Z,2.30
2022-09-28T10:13:40.244Z,2.50
2022-09-28T10:14:40.233Z,2.40
2022-09-28T10:15:40.230Z,2.50
2022-09-28T10:16:40.267Z,2.40
2022-09-28T10:17:40.220Z,2.40
2022-09-28T10:18:40.216Z,2.60
2022-09-28T10:19:40.211Z,2.70
2022-09-28T10:20:40.210Z,2.70
2022-09-28T10:21:40.201Z,2.40
2022-09-28T10:22:40.195Z,2.60
2022-09-28T10:23:40.192Z,2.50
2022-09-28T10:24:40.187Z,2.40
2022-09-28T10:25:40.180Z,2.10
2022-09-28T10:26:40.177Z,2.30
2022-09-28T10:27:40.171Z,2.60
2022-09-28T10:28:40.167Z,2.40
2022-09-28T10:29:40.162Z,2.60
2022-09-28T10:30:40.179Z,2.40
2022-09-28T10:31:40.152Z,2.30
2022-09-28T10:32:40.166Z,2.40
2022-09-28T10:33:40.141Z,2.50
2022-09-28T10:34:40.136Z,2.30
2022-09-28T10:35:40.138Z,2.30
2022-09-28T10:36:40.127Z,2.50
2022-09-28T10:37:40.122Z,2.40
2022-09-28T10:38:40.115Z,2.10
2022-09-28T10:39:40.113Z,2.50
2022-09-28T10:40:40.202Z,2.30
2022-09-28T10:41:40.102Z,2.20
2022-09-28T10:42:40.098Z,2.30
2022-09-28T10:43:40.092Z,2.00
2022-09-28T10:44:40.088Z,2.00
2022-09-28T10:45:40.143Z,2.20
2022-09-28T10:46:40.076Z,2.00
2022-09-28T10:47:40.072Z,1.80
2022-09-28T10:48:40.125Z,1.70
2022-09-28T10:49:44.416Z,1.50
2022-09-28T10:50:40.055Z,1.30
2022-09-28T10:51:40.047Z,1.40
2022-09-28T10:52:40.047Z,1.10
2022-09-28T10:53:40.045Z,1.20
2022-09-28T10:54:40.038Z,1.30
2022-09-28T10:55:40.033Z,1.20
2022-09-28T10:56:40.031Z,1.10
2022-09-28T10:57:40.019Z,1.10
2022-09-28T10:58:40.015Z,1.00
2022-09-28T10:59:40.008Z,1.10
2022-09-28T11:00:40.004Z,1.20
2022-09-28T11:01:40.045Z,1.10
2022-09-28T11:02:40.048Z,1.10
2022-09-28T11:03:39.989Z,1.10
2022-09-28T11:04:39.985Z,0.90
2022-09-28T11:05:39.976Z,1.00
2022-09-28T11:06:39.973Z,0.90
2022-09-28T11:07:39.977Z,1.00
2022-09-28T11:08:39.964Z,1.10
2022-09-28T11:09:39.957Z,1.00
2022-09-28T11:10:39.950Z,0.90
2022-09-28T11:11:39.946Z,0.90
2022-09-28T11:12:39.941Z,0.80
2022-09-28T11:13:39.935Z,0.90
2022-09-28T11:14:42.743Z,0.90
2022-09-28T11:15:39.923Z,1.00
2022-09-28T11:16:39.977Z,1.00
2022-09-28T11:17:39.914Z,0.90
2022-09-28T11:18:39.908Z,0.80
2022-09-28T11:19:39.901Z,0.80
2022-09-28T11:20:42.786Z,0.70
2022-09-28T11:21:39.890Z,0.90
2022-09-28T11:22:39.895Z,0.90
2022-09-28T11:23:39.890Z,0.80
2022-09-28T11:24:39.875Z,0.80
2022-09-28T11:25:39.869Z,0.90
2022-09-28T11:26:39.865Z,0.70
2022-09-28T11:27:39.860Z,0.80
2022-09-28T11:28:39.855Z,0.70
2022-09-28T11:29:39.846Z,0.80
2022-09-28T11:30:39.871Z,0.70
2022-09-28T11:31:39.837Z,0.50
2022-09-28T11:32:39.835Z,0.80
2022-09-28T11:33:39.826Z,0.60
2022-09-28T11:34:57.905Z,0.60
2022-09-28T11:35:39.810Z,0.90
2022-09-28T11:36:39.812Z,0.70
2022-09-28T11:37:39.804Z,0.80
2022-09-28T11:38:39.800Z,0.70
2022-09-28T11:39:39.793Z,0.70
2022-09-28T11:40:39.803Z,0.70
2022-09-28T11:41:39.786Z,0.80
2022-09-28T11:42:39.772Z,0.80
2022-09-28T11:43:39.772Z,0.70
2022-09-28T11:44:39.765Z,0.70
2022-09-28T11:45:39.821Z,0.80
2022-09-28T11:46:39.751Z,0.70
2022-09-28T11:47:39.744Z,0.80
2022-09-28T11:48:39.753Z,0.80
2022-09-28T11:49:39.733Z,0.80
2022-09-28T11:50:39.729Z,0.70
2022-09-28T11:51:39.724Z,0.90
2022-09-28T11:52:39.715Z,0.70
2022-09-28T11:53:39.717Z,0.70
2022-09-28T11:54:39.704Z,0.70
2022-09-28T11:55:39.699Z,1.00
2022-09-28T11:56:39.692Z,0.80
2022-09-28T11:57:39.685Z,0.70
2022-09-28T11:58:39.680Z,0.70
2022-09-28T11:59:39.683Z,0.70
2022-09-28T12:00:39.669Z,0.60
2022-09-28T12:01:39.662Z,0.70
2022-09-28T12:02:39.745Z,0.80
2022-09-28T12:03:39.739Z,0.80
2022-09-28T12:04:39.645Z,0.70
2022-09-28T12:05:39.638Z,0.90
2022-09-28T12:06:39.634Z,0.90
2022-09-28T12:07:39.627Z,0.80
2022-09-28T12:08:39.620Z,0.70
2022-09-28T12:09:39.613Z,0.70
2022-09-28T12:10:44.685Z,0.60
2022-09-28T12:11:39.604Z,0.70
2022-09-28T12:12:39.597Z,0.70
2022-09-28T12:13:39.590Z,0.70
2022-09-28T12:14:39.588Z,0.70
2022-09-28T12:16:06.895Z,0.70
2022-09-28T12:17:04.146Z,0.50
2022-09-28T12:17:39.596Z,0.50
2022-09-28T12:18:39.562Z,0.40
2022-09-28T12:19:39.562Z,0.50
2022-09-28T12:20:39.565Z,0.50
2022-09-28T12:21:39.642Z,0.50
2022-09-28T12:22:39.538Z,0.60
2022-09-28T12:23:39.533Z,0.60
2022-09-28T12:24:39.528Z,0.60
2022-09-28T12:25:39.520Z,0.60
2022-09-28T12:26:39.515Z,0.60
2022-09-28T12:27:39.511Z,0.70
2022-09-28T12:28:39.506Z,0.60
2022-09-28T12:29:39.499Z,0.60
2022-09-28T12:30:39.567Z,0.60
2022-09-28T12:31:39.488Z,0.60
2022-09-28T12:32:39.490Z,0.50
2022-09-28T12:33:39.477Z,0.50
2022-09-28T12:34:39.482Z,0.60
2022-09-28T12:35:39.466Z,0.40
2022-09-28T12:36:39.461Z,0.50
2022-09-28T12:37:39.456Z,0.50
2022-09-28T12:38:39.454Z,0.50
2022-09-28T12:39:56.492Z,0.40
2022-09-28T12:40:39.533Z,0.40
2022-09-28T12:41:39.435Z,0.50
2022-09-28T12:42:39.433Z,0.50
2022-09-28T12:43:39.423Z,0.30
2022-09-28T12:44:39.418Z,0.30
2022-09-28T12:46:06.743Z,0.20
2022-09-28T12:46:39.446Z,0.40
2022-09-28T12:47:39.402Z,0.30
2022-09-28T12:48:39.398Z,0.30
2022-09-28T12:50:42.095Z,0.30
2022-09-28T12:51:39.379Z,0.30
2022-09-28T12:52:39.373Z,0.30
2022-09-28T12:53:39.368Z,0.30
2022-09-28T12:54:39.363Z,0.40
2022-09-28T12:55:39.358Z,0.30
2022-09-28T12:56:39.352Z,0.30
2022-09-28T12:57:39.345Z,0.30
2022-09-28T12:58:39.341Z,0.30
2022-09-28T12:59:39.337Z,0.30
2022-09-28T13:00:39.331Z,0.30
2022-09-28T13:01:39.393Z,0.30
2022-09-28T13:02:39.339Z,0.20
2022-09-28T13:03:39.315Z,0.20
2022-09-28T13:04:39.312Z,0.30
2022-09-28T13:05:39.303Z,0.30
2022-09-28T13:06:39.299Z,0.20
2022-09-28T13:07:39.343Z,0.20
2022-09-28T13:08:39.288Z,0.30
2022-09-28T13:09:39.285Z,0.20
2022-09-28T13:10:39.279Z,0.30
2022-09-28T13:11:39.274Z,0.30
2022-09-28T13:12:39.268Z,0.20
2022-09-28T13:13:39.265Z,0.20
2022-09-28T13:14:39.257Z,0.20
2022-09-28T13:15:39.290Z,0.20
2022-09-28T13:16:39.243Z,0.30
2022-09-28T13:17:39.242Z,0.20
2022-09-28T13:18:39.238Z,0.30
2022-09-28T13:19:39.233Z,0.20